sensor_id;sensor_type;location;lat;lon;timestamp;P1;durP1;ratioP1;P2;durP2;ratioP2
16775;SDS011;8505;49.456;8.164;2023-05-10T00:01:31;2.03;;;1.00;;
16775;SDS011;8505;49.456;8.164;2023-05-10T00:03:59;1.80;;;0.93;;
16775;SDS011;8505;49.456;8.164;2023-05-10T00:06:27;1.08;;;0.80;;
16775;SDS011;8505;49.456;8.164;2023-05-10T00:08:55;2.15;;;0.90;;
16775;SDS011;8505;49.456;8.164;2023-05-10T00:11:23;2.00;;;0.80;;
16775;SDS011;8505;49.456;8.164;2023-05-10T00:13:51;1.90;;;0.90;;
16775;SDS011;8505;49.456;8.164;2023-05-10T00:16:19;1.90;;;0.80;;
16775;SDS011;8505;49.456;8.164;2023-05-10T00:18:48;2.13;;;0.90;;
16775;SDS011;8505;49.456;8.164;2023-05-10T00:21:16;1.30;;;0.90;;
16775;SDS011;8505;49.456;8.164;2023-05-10T00:23:44;1.20;;;0.80;;
16775;SDS011;8505;49.456;8.164;2023-05-10T00:26:12;1.40;;;0.90;;
16775;SDS011;8505;49.456;8.164;2023-05-10T00:28:41;1.47;;;0.87;;
16775;SDS011;8505;49.456;8.164;2023-05-10T00:31:08;1.70;;;0.80;;
16775;SDS011;8505;49.456;8.164;2023-05-10T00:33:36;1.48;;;0.80;;
16775;SDS011;8505;49.456;8.164;2023-05-10T00:36:06;2.65;;;0.90;;
16775;SDS011;8505;49.456;8.164;2023-05-10T00:38:34;1.17;;;0.80;;
16775;SDS011;8505;49.456;8.164;2023-05-10T00:41:02;1.80;;;0.80;;
16775;SDS011;8505;49.456;8.164;2023-05-10T00:43:30;1.02;;;0.90;;
16775;SDS011;8505;49.456;8.164;2023-05-10T00:45:58;2.40;;;0.90;;
16775;SDS011;8505;49.456;8.164;2023-05-10T00:48:26;1.57;;;0.97;;
16775;SDS011;8505;49.456;8.164;2023-05-10T00:50:56;1.40;;;0.75;;
16775;SDS011;8505;49.456;8.164;2023-05-10T00:53:26;1.70;;;0.90;;
16775;SDS011;8505;49.456;8.164;2023-05-10T00:55:54;1.38;;;0.90;;
16775;SDS011;8505;49.456;8.164;2023-05-10T00:58:22;2.90;;;0.80;;
16775;SDS011;8505;49.456;8.164;2023-05-10T01:00:54;1.15;;;0.75;;
16775;SDS011;8505;49.456;8.164;2023-05-10T01:03:23;1.83;;;0.90;;
16775;SDS011;8505;49.456;8.164;2023-05-10T01:05:52;1.10;;;0.90;;
16775;SDS011;8505;49.456;8.164;2023-05-10T01:08:20;2.53;;;0.90;;
16775;SDS011;8505;49.456;8.164;2023-05-10T01:10:49;2.00;;;0.90;;
16775;SDS011;8505;49.456;8.164;2023-05-10T01:13:33;1.80;;;0.80;;
16775;SDS011;8505;49.456;8.164;2023-05-10T01:16:03;1.50;;;1.00;;
16775;SDS011;8505;49.456;8.164;2023-05-10T01:18:33;1.50;;;1.00;;
16775;SDS011;8505;49.456;8.164;2023-05-10T01:21:07;2.15;;;0.80;;
16775;SDS011;8505;49.456;8.164;2023-05-10T01:24:01;3.40;;;1.10;;
16775;SDS011;8505;49.456;8.164;2023-05-10T01:29:55;3.33;;;1.00;;
16775;SDS011;8505;49.456;8.164;2023-05-10T01:32:50;2.75;;;0.90;;
16775;SDS011;8505;49.456;8.164;2023-05-10T01:35:26;2.40;;;1.00;;
16775;SDS011;8505;49.456;8.164;2023-05-10T01:38:04;1.65;;;1.10;;
16775;SDS011;8505;49.456;8.164;2023-05-10T01:40:42;2.30;;;1.05;;
16775;SDS011;8505;49.456;8.164;2023-05-10T01:43:17;2.42;;;1.00;;
16775;SDS011;8505;49.456;8.164;2023-05-10T01:45:50;1.50;;;0.98;;
16775;SDS011;8505;49.456;8.164;2023-05-10T01:48:27;1.27;;;0.90;;
16775;SDS011;8505;49.456;8.164;2023-05-10T01:50:57;1.38;;;0.98;;
16775;SDS011;8505;49.456;8.164;2023-05-10T01:53:26;2.35;;;1.08;;
16775;SDS011;8505;49.456;8.164;2023-05-10T01:55:55;1.45;;;1.05;;
16775;SDS011;8505;49.456;8.164;2023-05-10T01:58:25;2.45;;;1.10;;
16775;SDS011;8505;49.456;8.164;2023-05-10T02:00:56;2.22;;;0.90;;
16775;SDS011;8505;49.456;8.164;2023-05-10T02:03:29;3.70;;;1.08;;
16775;SDS011;8505;49.456;8.164;2023-05-10T02:05:59;2.17;;;1.20;;
16775;SDS011;8505;49.456;8.164;2023-05-10T02:08:28;2.28;;;1.25;;
16775;SDS011;8505;49.456;8.164;2023-05-10T02:10:58;1.73;;;1.20;;
16775;SDS011;8505;49.456;8.164;2023-05-10T02:13:27;3.60;;;1.23;;
16775;SDS011;8505;49.456;8.164;2023-05-10T02:15:58;2.20;;;1.10;;
16775;SDS011;8505;49.456;8.164;2023-05-10T02:18:27;3.07;;;1.30;;
16775;SDS011;8505;49.456;8.164;2023-05-10T02:20:57;1.40;;;1.20;;
16775;SDS011;8505;49.456;8.164;2023-05-10T02:23:26;1.75;;;1.30;;
16775;SDS011;8505;49.456;8.164;2023-05-10T02:25:56;1.77;;;1.40;;
16775;SDS011;8505;49.456;8.164;2023-05-10T02:28:25;3.13;;;1.42;;
16775;SDS011;8505;49.456;8.164;2023-05-10T02:30:53;2.60;;;1.50;;
16775;SDS011;8505;49.456;8.164;2023-05-10T02:33:22;2.93;;;1.33;;
16775;SDS011;8505;49.456;8.164;2023-05-10T02:35:52;3.50;;;1.57;;
16775;SDS011;8505;49.456;8.164;2023-05-10T02:38:22;1.85;;;1.50;;
16775;SDS011;8505;49.456;8.164;2023-05-10T02:40:51;3.30;;;1.50;;
16775;SDS011;8505;49.456;8.164;2023-05-10T02:43:21;1.90;;;1.55;;
16775;SDS011;8505;49.456;8.164;2023-05-10T02:45:51;3.85;;;1.75;;
16775;SDS011;8505;49.456;8.164;2023-05-10T02:48:19;1.90;;;1.50;;
16775;SDS011;8505;49.456;8.164;2023-05-10T02:50:46;3.35;;;1.70;;
16775;SDS011;8505;49.456;8.164;2023-05-10T02:53:20;4.97;;;1.77;;
16775;SDS011;8505;49.456;8.164;2023-05-10T02:55:51;3.40;;;1.70;;
16775;SDS011;8505;49.456;8.164;2023-05-10T02:58:24;2.75;;;1.63;;
16775;SDS011;8505;49.456;8.164;2023-05-10T03:00:52;2.90;;;1.80;;
16775;SDS011;8505;49.456;8.164;2023-05-10T03:03:21;3.80;;;1.85;;
16775;SDS011;8505;49.456;8.164;2023-05-10T03:05:49;3.03;;;1.83;;
16775;SDS011;8505;49.456;8.164;2023-05-10T03:08:16;3.17;;;1.88;;
16775;SDS011;8505;49.456;8.164;2023-05-10T03:10:47;3.63;;;1.77;;
16775;SDS011;8505;49.456;8.164;2023-05-10T03:13:25;4.10;;;1.85;;
16775;SDS011;8505;49.456;8.164;2023-05-10T03:15:57;3.92;;;1.60;;
16775;SDS011;8505;49.456;8.164;2023-05-10T03:18:33;3.67;;;1.80;;
16775;SDS011;8505;49.456;8.164;2023-05-10T03:21:10;3.22;;;1.80;;
16775;SDS011;8505;49.456;8.164;2023-05-10T03:23:40;6.22;;;2.00;;
16775;SDS011;8505;49.456;8.164;2023-05-10T03:26:15;3.93;;;1.70;;
16775;SDS011;8505;49.456;8.164;2023-05-10T03:28:48;3.05;;;1.60;;
16775;SDS011;8505;49.456;8.164;2023-05-10T03:31:17;4.67;;;1.80;;
16775;SDS011;8505;49.456;8.164;2023-05-10T03:33:46;3.00;;;1.80;;
16775;SDS011;8505;49.456;8.164;2023-05-10T03:36:15;3.25;;;1.80;;
16775;SDS011;8505;49.456;8.164;2023-05-10T03:38:43;3.88;;;1.80;;
16775;SDS011;8505;49.456;8.164;2023-05-10T03:41:10;3.45;;;1.77;;
16775;SDS011;8505;49.456;8.164;2023-05-10T03:43:39;3.25;;;2.10;;
16775;SDS011;8505;49.456;8.164;2023-05-10T03:46:07;3.25;;;1.90;;
16775;SDS011;8505;49.456;8.164;2023-05-10T03:48:36;2.97;;;2.20;;
16775;SDS011;8505;49.456;8.164;2023-05-10T03:51:04;4.65;;;2.30;;
16775;SDS011;8505;49.456;8.164;2023-05-10T03:53:31;4.22;;;2.50;;
16775;SDS011;8505;49.456;8.164;2023-05-10T03:55:59;4.63;;;2.30;;
16775;SDS011;8505;49.456;8.164;2023-05-10T03:58:27;4.53;;;2.50;;
16775;SDS011;8505;49.456;8.164;2023-05-10T04:00:56;4.30;;;2.35;;
16775;SDS011;8505;49.456;8.164;2023-05-10T04:03:24;5.10;;;2.70;;
16775;SDS011;8505;49.456;8.164;2023-05-10T04:05:58;6.00;;;2.58;;
16775;SDS011;8505;49.456;8.164;2023-05-10T04:08:26;4.07;;;2.63;;
16775;SDS011;8505;49.456;8.164;2023-05-10T04:10:54;4.53;;;2.90;;
16775;SDS011;8505;49.456;8.164;2023-05-10T04:13:22;4.73;;;2.90;;
16775;SDS011;8505;49.456;8.164;2023-05-10T04:15:50;6.13;;;3.03;;
16775;SDS011;8505;49.456;8.164;2023-05-10T04:18:19;5.05;;;3.00;;
16775;SDS011;8505;49.456;8.164;2023-05-10T04:20:47;6.35;;;3.20;;
16775;SDS011;8505;49.456;8.164;2023-05-10T04:23:15;5.47;;;3.03;;
16775;SDS011;8505;49.456;8.164;2023-05-10T04:25:43;6.32;;;3.10;;
16775;SDS011;8505;49.456;8.164;2023-05-10T04:28:11;4.25;;;3.38;;
16775;SDS011;8505;49.456;8.164;2023-05-10T04:30:38;6.32;;;3.60;;
16775;SDS011;8505;49.456;8.164;2023-05-10T04:33:06;5.77;;;3.83;;
16775;SDS011;8505;49.456;8.164;2023-05-10T04:35:36;4.93;;;3.83;;
16775;SDS011;8505;49.456;8.164;2023-05-10T04:38:05;6.63;;;3.43;;
16775;SDS011;8505;49.456;8.164;2023-05-10T04:40:32;5.13;;;3.45;;
16775;SDS011;8505;49.456;8.164;2023-05-10T04:43:00;5.55;;;3.47;;
16775;SDS011;8505;49.456;8.164;2023-05-10T04:45:29;5.95;;;3.72;;
16775;SDS011;8505;49.456;8.164;2023-05-10T04:47:57;7.22;;;3.55;;
16775;SDS011;8505;49.456;8.164;2023-05-10T04:50:24;5.03;;;3.55;;
16775;SDS011;8505;49.456;8.164;2023-05-10T04:52:53;5.15;;;3.05;;
16775;SDS011;8505;49.456;8.164;2023-05-10T04:55:21;6.22;;;3.10;;
16775;SDS011;8505;49.456;8.164;2023-05-10T04:57:49;5.03;;;2.70;;
16775;SDS011;8505;49.456;8.164;2023-05-10T05:00:17;3.85;;;2.58;;
16775;SDS011;8505;49.456;8.164;2023-05-10T05:02:45;5.10;;;2.95;;
16775;SDS011;8505;49.456;8.164;2023-05-10T05:05:13;5.25;;;2.95;;
16775;SDS011;8505;49.456;8.164;2023-05-10T05:07:41;4.50;;;2.67;;
16775;SDS011;8505;49.456;8.164;2023-05-10T05:10:10;3.90;;;2.33;;
16775;SDS011;8505;49.456;8.164;2023-05-10T05:12:38;4.17;;;2.37;;
16775;SDS011;8505;49.456;8.164;2023-05-10T05:15:07;5.10;;;2.30;;
16775;SDS011;8505;49.456;8.164;2023-05-10T05:17:36;3.60;;;1.70;;
16775;SDS011;8505;49.456;8.164;2023-05-10T05:20:04;2.55;;;1.50;;
16775;SDS011;8505;49.456;8.164;2023-05-10T05:22:33;5.25;;;1.48;;
16775;SDS011;8505;49.456;8.164;2023-05-10T05:25:01;3.47;;;1.50;;
16775;SDS011;8505;49.456;8.164;2023-05-10T05:27:31;2.45;;;1.50;;
16775;SDS011;8505;49.456;8.164;2023-05-10T05:29:59;4.70;;;1.80;;
16775;SDS011;8505;49.456;8.164;2023-05-10T05:32:27;4.72;;;1.70;;
16775;SDS011;8505;49.456;8.164;2023-05-10T05:34:55;3.17;;;1.70;;
16775;SDS011;8505;49.456;8.164;2023-05-10T05:37:22;3.30;;;1.60;;
16775;SDS011;8505;49.456;8.164;2023-05-10T05:39:50;3.00;;;1.40;;
16775;SDS011;8505;49.456;8.164;2023-05-10T05:42:18;2.45;;;1.40;;
16775;SDS011;8505;49.456;8.164;2023-05-10T05:44:48;3.35;;;1.23;;
16775;SDS011;8505;49.456;8.164;2023-05-10T05:47:15;3.60;;;1.35;;
16775;SDS011;8505;49.456;8.164;2023-05-10T05:49:43;1.98;;;1.38;;
16775;SDS011;8505;49.456;8.164;2023-05-10T05:52:12;2.33;;;1.40;;
16775;SDS011;8505;49.456;8.164;2023-05-10T05:54:40;3.20;;;1.40;;
16775;SDS011;8505;49.456;8.164;2023-05-10T05:57:08;3.92;;;1.40;;
16775;SDS011;8505;49.456;8.164;2023-05-10T05:59:36;3.42;;;1.40;;
16775;SDS011;8505;49.456;8.164;2023-05-10T06:02:09;2.73;;;1.17;;
16775;SDS011;8505;49.456;8.164;2023-05-10T06:04:37;3.53;;;1.20;;
16775;SDS011;8505;49.456;8.164;2023-05-10T06:07:09;1.67;;;1.13;;
16775;SDS011;8505;49.456;8.164;2023-05-10T06:09:37;2.67;;;1.17;;
16775;SDS011;8505;49.456;8.164;2023-05-10T06:12:05;2.97;;;1.40;;
16775;SDS011;8505;49.456;8.164;2023-05-10T06:14:36;1.88;;;1.10;;
16775;SDS011;8505;49.456;8.164;2023-05-10T06:17:03;3.40;;;1.20;;
16775;SDS011;8505;49.456;8.164;2023-05-10T06:19:34;2.10;;;1.00;;
16775;SDS011;8505;49.456;8.164;2023-05-10T06:22:02;3.33;;;1.00;;
16775;SDS011;8505;49.456;8.164;2023-05-10T06:24:30;2.75;;;1.08;;
16775;SDS011;8505;49.456;8.164;2023-05-10T06:26:58;4.32;;;1.10;;
16775;SDS011;8505;49.456;8.164;2023-05-10T06:29:26;4.28;;;1.00;;
16775;SDS011;8505;49.456;8.164;2023-05-10T06:31:54;4.40;;;1.17;;
16775;SDS011;8505;49.456;8.164;2023-05-10T06:34:22;2.78;;;1.00;;
16775;SDS011;8505;49.456;8.164;2023-05-10T06:36:51;3.45;;;0.90;;
16775;SDS011;8505;49.456;8.164;2023-05-10T06:39:19;2.15;;;1.00;;
16775;SDS011;8505;49.456;8.164;2023-05-10T06:41:47;2.42;;;1.00;;
16775;SDS011;8505;49.456;8.164;2023-05-10T06:44:15;2.65;;;1.05;;
16775;SDS011;8505;49.456;8.164;2023-05-10T06:46:42;2.85;;;1.00;;
16775;SDS011;8505;49.456;8.164;2023-05-10T06:49:10;3.10;;;0.90;;
16775;SDS011;8505;49.456;8.164;2023-05-10T06:51:38;2.35;;;1.00;;
16775;SDS011;8505;49.456;8.164;2023-05-10T06:54:07;1.25;;;0.93;;
16775;SDS011;8505;49.456;8.164;2023-05-10T06:56:35;1.77;;;0.90;;
16775;SDS011;8505;49.456;8.164;2023-05-10T06:59:03;2.33;;;1.03;;
16775;SDS011;8505;49.456;8.164;2023-05-10T07:01:31;2.35;;;1.00;;
16775;SDS011;8505;49.456;8.164;2023-05-10T07:03:59;1.30;;;1.05;;
16775;SDS011;8505;49.456;8.164;2023-05-10T07:06:26;0.85;;;0.80;;
16775;SDS011;8505;49.456;8.164;2023-05-10T07:08:59;1.75;;;1.00;;
16775;SDS011;8505;49.456;8.164;2023-05-10T07:11:28;2.63;;;0.88;;
16775;SDS011;8505;49.456;8.164;2023-05-10T07:13:56;1.70;;;0.90;;
16775;SDS011;8505;49.456;8.164;2023-05-10T07:16:24;1.52;;;0.80;;
16775;SDS011;8505;49.456;8.164;2023-05-10T07:18:53;2.08;;;0.80;;
16775;SDS011;8505;49.456;8.164;2023-05-10T07:21:21;2.55;;;0.80;;
16775;SDS011;8505;49.456;8.164;2023-05-10T07:23:50;2.33;;;0.80;;
16775;SDS011;8505;49.456;8.164;2023-05-10T07:26:18;2.20;;;0.80;;
16775;SDS011;8505;49.456;8.164;2023-05-10T07:28:47;2.80;;;0.90;;
16775;SDS011;8505;49.456;8.164;2023-05-10T07:31:14;2.47;;;0.70;;
16775;SDS011;8505;49.456;8.164;2023-05-10T07:33:42;1.70;;;0.80;;
16775;SDS011;8505;49.456;8.164;2023-05-10T07:36:10;1.23;;;0.70;;
16775;SDS011;8505;49.456;8.164;2023-05-10T07:38:39;1.35;;;0.70;;
16775;SDS011;8505;49.456;8.164;2023-05-10T07:41:07;1.70;;;0.75;;
16775;SDS011;8505;49.456;8.164;2023-05-10T07:43:34;3.15;;;0.90;;
16775;SDS011;8505;49.456;8.164;2023-05-10T07:46:03;1.85;;;0.80;;
16775;SDS011;8505;49.456;8.164;2023-05-10T07:48:31;1.77;;;0.80;;
16775;SDS011;8505;49.456;8.164;2023-05-10T07:50:59;2.03;;;0.80;;
16775;SDS011;8505;49.456;8.164;2023-05-10T07:53:27;5.47;;;1.25;;
16775;SDS011;8505;49.456;8.164;2023-05-10T07:55:57;3.47;;;0.90;;
16775;SDS011;8505;49.456;8.164;2023-05-10T07:58:25;1.90;;;0.90;;
16775;SDS011;8505;49.456;8.164;2023-05-10T08:00:53;1.67;;;0.70;;
16775;SDS011;8505;49.456;8.164;2023-05-10T08:03:22;3.80;;;0.80;;
16775;SDS011;8505;49.456;8.164;2023-05-10T08:05:50;1.73;;;0.80;;
16775;SDS011;8505;49.456;8.164;2023-05-10T08:08:18;1.40;;;0.90;;
16775;SDS011;8505;49.456;8.164;2023-05-10T08:10:47;2.80;;;0.70;;
16775;SDS011;8505;49.456;8.164;2023-05-10T08:13:15;2.35;;;1.00;;
16775;SDS011;8505;49.456;8.164;2023-05-10T08:18:45;3.08;;;1.73;;
16775;SDS011;8505;49.456;8.164;2023-05-10T08:21:14;3.93;;;1.50;;
16775;SDS011;8505;49.456;8.164;2023-05-10T08:23:42;2.60;;;1.30;;
16775;SDS011;8505;49.456;8.164;2023-05-10T08:26:10;2.95;;;1.13;;
16775;SDS011;8505;49.456;8.164;2023-05-10T08:28:38;6.43;;;1.80;;
16775;SDS011;8505;49.456;8.164;2023-05-10T08:31:06;4.05;;;1.70;;
16775;SDS011;8505;49.456;8.164;2023-05-10T08:33:37;4.32;;;2.20;;
16775;SDS011;8505;49.456;8.164;2023-05-10T08:36:26;3.83;;;1.10;;
16775;SDS011;8505;49.456;8.164;2023-05-10T08:38:54;2.35;;;0.95;;
16775;SDS011;8505;49.456;8.164;2023-05-10T08:41:22;2.97;;;0.98;;
16775;SDS011;8505;49.456;8.164;2023-05-10T08:43:52;3.92;;;1.42;;
16775;SDS011;8505;49.456;8.164;2023-05-10T08:46:21;3.28;;;1.10;;
16775;SDS011;8505;49.456;8.164;2023-05-10T08:48:50;2.95;;;0.85;;
16775;SDS011;8505;49.456;8.164;2023-05-10T08:51:24;2.93;;;0.70;;
16775;SDS011;8505;49.456;8.164;2023-05-10T08:53:55;2.85;;;0.70;;
16775;SDS011;8505;49.456;8.164;2023-05-10T08:56:24;1.97;;;0.70;;
16775;SDS011;8505;49.456;8.164;2023-05-10T08:58:52;1.55;;;0.70;;
16775;SDS011;8505;49.456;8.164;2023-05-10T09:01:20;1.55;;;0.60;;
16775;SDS011;8505;49.456;8.164;2023-05-10T09:03:49;2.67;;;0.70;;
16775;SDS011;8505;49.456;8.164;2023-05-10T09:06:18;3.10;;;1.00;;
16775;SDS011;8505;49.456;8.164;2023-05-10T09:08:46;2.55;;;0.70;;
16775;SDS011;8505;49.456;8.164;2023-05-10T09:11:16;2.63;;;0.63;;
16775;SDS011;8505;49.456;8.164;2023-05-10T09:13:45;1.92;;;0.60;;
16775;SDS011;8505;49.456;8.164;2023-05-10T09:16:15;2.42;;;0.70;;
16775;SDS011;8505;49.456;8.164;2023-05-10T09:18:47;3.83;;;0.70;;
16775;SDS011;8505;49.456;8.164;2023-05-10T09:21:16;1.58;;;0.50;;
16775;SDS011;8505;49.456;8.164;2023-05-10T09:23:44;2.05;;;0.50;;
16775;SDS011;8505;49.456;8.164;2023-05-10T09:26:14;2.72;;;0.80;;
16775;SDS011;8505;49.456;8.164;2023-05-10T09:28:53;2.95;;;0.70;;
16775;SDS011;8505;49.456;8.164;2023-05-10T09:31:22;1.17;;;0.50;;
16775;SDS011;8505;49.456;8.164;2023-05-10T09:33:53;3.78;;;0.60;;
16775;SDS011;8505;49.456;8.164;2023-05-10T09:36:24;1.85;;;0.70;;
16775;SDS011;8505;49.456;8.164;2023-05-10T09:38:53;1.80;;;0.50;;
16775;SDS011;8505;49.456;8.164;2023-05-10T09:41:22;3.88;;;0.70;;
16775;SDS011;8505;49.456;8.164;2023-05-10T09:43:55;1.60;;;0.90;;
16775;SDS011;8505;49.456;8.164;2023-05-10T09:46:23;2.58;;;0.80;;
16775;SDS011;8505;49.456;8.164;2023-05-10T09:48:51;2.65;;;0.98;;
16775;SDS011;8505;49.456;8.164;2023-05-10T09:51:19;2.10;;;0.82;;
16775;SDS011;8505;49.456;8.164;2023-05-10T09:53:48;1.20;;;0.75;;
16775;SDS011;8505;49.456;8.164;2023-05-10T09:56:35;2.45;;;0.80;;
16775;SDS011;8505;49.456;8.164;2023-05-10T09:59:08;2.72;;;0.77;;
16775;SDS011;8505;49.456;8.164;2023-05-10T10:01:37;2.17;;;1.10;;
16775;SDS011;8505;49.456;8.164;2023-05-10T10:04:07;2.60;;;0.98;;
16775;SDS011;8505;49.456;8.164;2023-05-10T10:06:37;2.10;;;0.80;;
16775;SDS011;8505;49.456;8.164;2023-05-10T10:09:07;3.40;;;0.70;;
16775;SDS011;8505;49.456;8.164;2023-05-10T10:11:36;1.30;;;0.60;;
16775;SDS011;8505;49.456;8.164;2023-05-10T10:14:06;2.85;;;0.70;;
16775;SDS011;8505;49.456;8.164;2023-05-10T10:16:35;1.15;;;0.80;;
16775;SDS011;8505;49.456;8.164;2023-05-10T10:19:17;2.17;;;0.70;;
16775;SDS011;8505;49.456;8.164;2023-05-10T10:21:46;2.15;;;0.77;;
16775;SDS011;8505;49.456;8.164;2023-05-10T10:24:13;1.17;;;0.70;;
16775;SDS011;8505;49.456;8.164;2023-05-10T10:26:42;3.23;;;0.67;;
16775;SDS011;8505;49.456;8.164;2023-05-10T10:29:15;2.85;;;0.80;;
16775;SDS011;8505;49.456;8.164;2023-05-10T10:31:51;2.03;;;0.80;;
16775;SDS011;8505;49.456;8.164;2023-05-10T10:34:28;1.83;;;0.70;;
16775;SDS011;8505;49.456;8.164;2023-05-10T10:36:57;4.43;;;0.70;;
16775;SDS011;8505;49.456;8.164;2023-05-10T10:39:32;2.05;;;0.60;;
16775;SDS011;8505;49.456;8.164;2023-05-10T10:42:03;1.33;;;0.60;;
16775;SDS011;8505;49.456;8.164;2023-05-10T10:44:37;3.70;;;0.70;;
16775;SDS011;8505;49.456;8.164;2023-05-10T10:47:08;1.30;;;0.50;;
16775;SDS011;8505;49.456;8.164;2023-05-10T10:49:51;1.98;;;0.60;;
16775;SDS011;8505;49.456;8.164;2023-05-10T10:52:33;2.57;;;0.70;;
16775;SDS011;8505;49.456;8.164;2023-05-10T10:55:03;3.40;;;0.60;;
16775;SDS011;8505;49.456;8.164;2023-05-10T10:57:33;2.80;;;0.70;;
16775;SDS011;8505;49.456;8.164;2023-05-10T11:03:06;2.63;;;0.63;;
16775;SDS011;8505;49.456;8.164;2023-05-10T11:05:40;3.67;;;0.70;;
16775;SDS011;8505;49.456;8.164;2023-05-10T11:08:14;3.75;;;0.75;;
16775;SDS011;8505;49.456;8.164;2023-05-10T11:10:51;2.17;;;0.90;;
16775;SDS011;8505;49.456;8.164;2023-05-10T11:13:27;3.35;;;0.90;;
16775;SDS011;8505;49.456;8.164;2023-05-10T11:15:58;3.65;;;0.77;;
16775;SDS011;8505;49.456;8.164;2023-05-10T11:18:27;2.90;;;0.68;;
16775;SDS011;8505;49.456;8.164;2023-05-10T11:20:57;4.57;;;0.90;;
16775;SDS011;8505;49.456;8.164;2023-05-10T11:23:29;3.83;;;1.00;;
16775;SDS011;8505;49.456;8.164;2023-05-10T11:25:59;2.85;;;0.85;;
16775;SDS011;8505;49.456;8.164;2023-05-10T11:28:27;3.42;;;0.80;;
16775;SDS011;8505;49.456;8.164;2023-05-10T11:30:55;3.47;;;0.70;;
16775;SDS011;8505;49.456;8.164;2023-05-10T11:33:25;3.55;;;0.70;;
16775;SDS011;8505;49.456;8.164;2023-05-10T11:35:53;3.97;;;0.82;;
16775;SDS011;8505;49.456;8.164;2023-05-10T11:38:21;3.47;;;0.90;;
16775;SDS011;8505;49.456;8.164;2023-05-10T11:40:50;4.90;;;1.30;;
16775;SDS011;8505;49.456;8.164;2023-05-10T11:43:19;7.40;;;1.50;;
16775;SDS011;8505;49.456;8.164;2023-05-10T11:45:54;6.55;;;1.20;;
16775;SDS011;8505;49.456;8.164;2023-05-10T11:48:24;5.97;;;1.48;;
16775;SDS011;8505;49.456;8.164;2023-05-10T11:50:52;3.00;;;0.90;;
16775;SDS011;8505;49.456;8.164;2023-05-10T11:53:23;2.65;;;0.70;;
16775;SDS011;8505;49.456;8.164;2023-05-10T11:55:53;3.30;;;0.80;;
16775;SDS011;8505;49.456;8.164;2023-05-10T11:58:21;4.53;;;0.80;;
16775;SDS011;8505;49.456;8.164;2023-05-10T12:00:49;1.98;;;0.70;;
16775;SDS011;8505;49.456;8.164;2023-05-10T12:03:17;3.07;;;0.63;;
16775;SDS011;8505;49.456;8.164;2023-05-10T12:05:47;4.65;;;0.77;;
16775;SDS011;8505;49.456;8.164;2023-05-10T12:08:15;2.33;;;0.68;;
16775;SDS011;8505;49.456;8.164;2023-05-10T12:10:48;3.17;;;0.70;;
16775;SDS011;8505;49.456;8.164;2023-05-10T12:13:16;3.40;;;0.75;;
16775;SDS011;8505;49.456;8.164;2023-05-10T12:15:45;2.67;;;0.80;;
16775;SDS011;8505;49.456;8.164;2023-05-10T12:18:13;4.78;;;0.77;;
16775;SDS011;8505;49.456;8.164;2023-05-10T12:20:41;4.03;;;0.73;;
16775;SDS011;8505;49.456;8.164;2023-05-10T12:23:11;3.20;;;0.73;;
16775;SDS011;8505;49.456;8.164;2023-05-10T12:25:40;2.53;;;0.70;;
16775;SDS011;8505;49.456;8.164;2023-05-10T12:28:08;5.78;;;0.73;;
16775;SDS011;8505;49.456;8.164;2023-05-10T12:30:36;2.92;;;0.60;;
16775;SDS011;8505;49.456;8.164;2023-05-10T12:33:07;1.83;;;0.50;;
16775;SDS011;8505;49.456;8.164;2023-05-10T12:35:46;2.28;;;0.50;;
16775;SDS011;8505;49.456;8.164;2023-05-10T12:38:27;2.72;;;0.52;;
16775;SDS011;8505;49.456;8.164;2023-05-10T12:40:57;3.35;;;0.68;;
16775;SDS011;8505;49.456;8.164;2023-05-10T12:43:25;2.65;;;0.70;;
16775;SDS011;8505;49.456;8.164;2023-05-10T12:45:55;2.10;;;0.50;;
16775;SDS011;8505;49.456;8.164;2023-05-10T12:48:23;2.35;;;0.50;;
16775;SDS011;8505;49.456;8.164;2023-05-10T12:50:51;4.70;;;0.60;;
16775;SDS011;8505;49.456;8.164;2023-05-10T12:53:18;2.43;;;0.43;;
16775;SDS011;8505;49.456;8.164;2023-05-10T12:55:48;1.52;;;0.40;;
16775;SDS011;8505;49.456;8.164;2023-05-10T12:58:15;1.83;;;0.63;;
16775;SDS011;8505;49.456;8.164;2023-05-10T13:01:00;2.67;;;0.57;;
16775;SDS011;8505;49.456;8.164;2023-05-10T13:03:29;2.67;;;0.50;;
16775;SDS011;8505;49.456;8.164;2023-05-10T13:05:57;2.03;;;0.60;;
16775;SDS011;8505;49.456;8.164;2023-05-10T13:08:26;4.20;;;0.57;;
16775;SDS011;8505;49.456;8.164;2023-05-10T13:10:57;2.40;;;0.50;;
16775;SDS011;8505;49.456;8.164;2023-05-10T13:13:25;1.50;;;0.40;;
16775;SDS011;8505;49.456;8.164;2023-05-10T13:15:53;3.03;;;0.50;;
16775;SDS011;8505;49.456;8.164;2023-05-10T13:18:21;1.07;;;0.40;;
16775;SDS011;8505;49.456;8.164;2023-05-10T13:20:50;1.55;;;0.50;;
16775;SDS011;8505;49.456;8.164;2023-05-10T13:23:18;2.50;;;0.60;;
16775;SDS011;8505;49.456;8.164;2023-05-10T13:25:46;1.52;;;0.47;;
16775;SDS011;8505;49.456;8.164;2023-05-10T13:28:16;3.05;;;0.30;;
16775;SDS011;8505;49.456;8.164;2023-05-10T13:30:43;2.47;;;0.40;;
16775;SDS011;8505;49.456;8.164;2023-05-10T13:33:11;1.42;;;0.30;;
16775;SDS011;8505;49.456;8.164;2023-05-10T13:35:40;2.85;;;0.40;;
16775;SDS011;8505;49.456;8.164;2023-05-10T13:38:08;2.55;;;0.43;;
16775;SDS011;8505;49.456;8.164;2023-05-10T13:40:36;1.15;;;0.30;;
16775;SDS011;8505;49.456;8.164;2023-05-10T13:43:03;2.20;;;0.43;;
16775;SDS011;8505;49.456;8.164;2023-05-10T13:45:33;3.17;;;0.55;;
16775;SDS011;8505;49.456;8.164;2023-05-10T13:48:01;2.13;;;0.57;;
16775;SDS011;8505;49.456;8.164;2023-05-10T13:50:29;1.92;;;0.30;;
16775;SDS011;8505;49.456;8.164;2023-05-10T13:52:57;2.10;;;0.45;;
16775;SDS011;8505;49.456;8.164;2023-05-10T13:55:25;4.00;;;1.35;;
16775;SDS011;8505;49.456;8.164;2023-05-10T13:57:53;1.60;;;0.50;;
16775;SDS011;8505;49.456;8.164;2023-05-10T14:00:21;2.05;;;1.20;;
16775;SDS011;8505;49.456;8.164;2023-05-10T14:02:50;3.92;;;1.92;;
16775;SDS011;8505;49.456;8.164;2023-05-10T14:05:18;4.72;;;3.45;;
16775;SDS011;8505;49.456;8.164;2023-05-10T14:07:51;0.93;;;0.40;;
16775;SDS011;8505;49.456;8.164;2023-05-10T14:10:20;1.25;;;0.60;;
16775;SDS011;8505;49.456;8.164;2023-05-10T14:12:47;3.60;;;2.65;;
16775;SDS011;8505;49.456;8.164;2023-05-10T14:15:15;2.65;;;2.10;;
16775;SDS011;8505;49.456;8.164;2023-05-10T14:17:44;10.10;;;6.28;;
16775;SDS011;8505;49.456;8.164;2023-05-10T14:20:14;11.23;;;6.70;;
16775;SDS011;8505;49.456;8.164;2023-05-10T14:22:41;25.27;;;14.57;;
16775;SDS011;8505;49.456;8.164;2023-05-10T14:25:09;19.27;;;11.63;;
16775;SDS011;8505;49.456;8.164;2023-05-10T14:27:37;7.13;;;3.50;;
16775;SDS011;8505;49.456;8.164;2023-05-10T14:30:06;23.45;;;12.40;;
16775;SDS011;8505;49.456;8.164;2023-05-10T14:32:34;2.00;;;0.80;;
16775;SDS011;8505;49.456;8.164;2023-05-10T14:35:04;3.67;;;1.90;;
16775;SDS011;8505;49.456;8.164;2023-05-10T14:37:40;1.55;;;0.40;;
16775;SDS011;8505;49.456;8.164;2023-05-10T14:40:08;1.92;;;0.50;;
16775;SDS011;8505;49.456;8.164;2023-05-10T14:42:36;2.00;;;0.50;;
16775;SDS011;8505;49.456;8.164;2023-05-10T14:45:05;1.92;;;0.40;;
16775;SDS011;8505;49.456;8.164;2023-05-10T14:47:34;2.00;;;0.40;;
16775;SDS011;8505;49.456;8.164;2023-05-10T14:50:03;1.20;;;0.30;;
16775;SDS011;8505;49.456;8.164;2023-05-10T14:52:31;1.40;;;0.50;;
16775;SDS011;8505;49.456;8.164;2023-05-10T14:55:01;2.38;;;1.10;;
16775;SDS011;8505;49.456;8.164;2023-05-10T14:57:29;4.72;;;2.42;;
16775;SDS011;8505;49.456;8.164;2023-05-10T14:59:57;6.28;;;3.65;;
16775;SDS011;8505;49.456;8.164;2023-05-10T15:02:25;1.13;;;0.70;;
16775;SDS011;8505;49.456;8.164;2023-05-10T15:04:54;3.30;;;1.80;;
16775;SDS011;8505;49.456;8.164;2023-05-10T15:07:22;4.55;;;2.05;;
16775;SDS011;8505;49.456;8.164;2023-05-10T15:09:50;14.18;;;8.60;;
16775;SDS011;8505;49.456;8.164;2023-05-10T15:12:20;2.28;;;0.60;;
16775;SDS011;8505;49.456;8.164;2023-05-10T15:14:47;6.45;;;4.07;;
16775;SDS011;8505;49.456;8.164;2023-05-10T15:17:15;6.60;;;3.50;;
16775;SDS011;8505;49.456;8.164;2023-05-10T15:19:43;2.50;;;1.00;;
16775;SDS011;8505;49.456;8.164;2023-05-10T15:22:11;9.35;;;5.13;;
16775;SDS011;8505;49.456;8.164;2023-05-10T15:24:39;1.42;;;0.47;;